Time;durP1;ratioP1;P1;durP2;ratioP2;P2;SDS_P1;SDS_P2;PMS_P1;PMS_P2;Temp;Humidity;BMP_temperature;BMP_pressure;BME280_temperature;BME280_humidity;BME280_pressure;Samples;Min_cycle;Max_cycle;Signal;HPM_P1;HPM_P2
2022/07/10 00:00:31;;;;;;;9.30;5.40;;;22.70;51.80;;;;;;5007069;28;21161;-88
2022/07/10 00:03:00;;;;;;;4.80;4.40;;;22.60;52.00;;;;;;5026259;27;20477;-89
2022/07/10 00:05:27;;;;;;;4.80;4.40;;;22.60;52.00;;;;;;5004129;28;20487;-88
2022/07/10 00:07:54;;;;;;;5.03;4.30;;;22.50;52.10;;;;;;5023454;28;20500;-89
2022/07/10 00:10:22;;;;;;;4.90;4.50;;;22.50;51.70;;;;;;5021801;28;20541;-89
2022/07/10 00:12:50;;;;;;;5.00;4.60;;;22.50;51.50;;;;;;5023500;28;20845;-87
2022/07/10 00:15:17;;;;;;;5.70;5.20;;;22.40;51.70;;;;;;5027355;27;20454;-89
2022/07/10 00:17:44;;;;;;;4.93;4.43;;;22.40;51.90;;;;;;5014403;28;21015;-88
2022/07/10 00:20:14;;;;;;;5.40;4.90;;;22.40;51.80;;;;;;5002028;28;20453;-88
2022/07/10 00:22:41;;;;;;;5.50;5.10;;;22.30;51.80;;;;;;5025504;28;20442;-88
2022/07/10 00:25:11;;;;;;;5.20;4.63;;;22.30;51.80;;;;;;5031408;28;20443;-88
2022/07/10 00:27:38;;;;;;;6.30;5.43;;;22.30;51.80;;;;;;5020780;28;20544;-88
2022/07/10 00:30:06;;;;;;;7.47;4.97;;;22.20;52.10;;;;;;5010300;28;20470;-89
2022/07/10 00:32:33;;;;;;;6.00;5.50;;;22.10;52.20;;;;;;5004022;28;20557;-88
2022/07/10 00:35:01;;;;;;;5.57;5.07;;;22.10;52.60;;;;;;5003190;28;20447;-88
2022/07/10 00:37:30;;;;;;;6.27;5.70;;;22.10;52.80;;;;;;5027947;28;20580;-88
2022/07/10 00:39:57;;;;;;;5.80;5.20;;;22.00;52.90;;;;;;5015017;28;20450;-88
2022/07/10 00:42:24;;;;;;;6.80;6.20;;;22.00;53.40;;;;;;5004472;28;20726;-89
2022/07/10 00:44:51;;;;;;;6.10;5.60;;;21.90;53.30;;;;;;5031526;28;20461;-89
2022/07/10 00:47:19;;;;;;;6.03;5.53;;;21.60;54.30;;;;;;5024257;28;20468;-89
2022/07/10 00:49:47;;;;;;;5.70;5.20;;;21.60;54.50;;;;;;5025665;28;20466;-88
2022/07/10 00:52:15;;;;;;;5.50;5.00;;;21.50;55.00;;;;;;5029597;28;20538;-89
2022/07/10 00:54:45;;;;;;;8.67;6.03;;;21.50;53.90;;;;;;5025732;28;20470;-88
2022/07/10 00:57:15;;;;;;;5.80;5.30;;;21.10;55.60;;;;;;5027277;28;20474;-88
2022/07/10 00:59:42;;;;;;;6.30;5.67;;;21.10;55.40;;;;;;5013555;28;20466;-88
2022/07/10 01:02:10;;;;;;;6.80;6.20;;;21.30;55.20;;;;;;5029051;28;20465;-88
2022/07/10 01:04:37;;;;;;;5.20;4.80;;;21.20;55.10;;;;;;5033463;28;20515;-88
2022/07/10 01:07:05;;;;;;;6.30;5.70;;;20.90;55.00;;;;;;5021775;28;20473;-88
2022/07/10 01:09:33;;;;;;;5.73;5.17;;;21.10;54.80;;;;;;5028492;28;20462;-88
2022/07/10 01:12:03;;;;;;;6.03;5.03;;;21.20;54.20;;;;;;5024587;28;20450;-88
2022/07/10 01:14:31;;;;;;;5.80;5.30;;;21.20;54.30;;;;;;5009016;28;20561;-88
2022/07/10 01:16:58;;;;;;;5.90;5.40;;;21.30;54.10;;;;;;5023483;28;20457;-88
2022/07/10 01:19:25;;;;;;;5.77;5.13;;;21.30;53.80;;;;;;5030393;28;20545;-88
2022/07/10 01:21:53;;;;;;;7.00;5.60;;;21.40;53.70;;;;;;5024672;27;20438;-88
2022/07/10 01:24:21;;;;;;;5.77;5.27;;;21.40;53.60;;;;;;5031154;27;21223;-88
2022/07/10 01:26:48;;;;;;;6.17;5.57;;;21.20;54.30;;;;;;5010554;28;20490;-88
2022/07/10 01:29:15;;;;;;;5.70;5.20;;;21.20;54.20;;;;;;5044737;27;20446;-88
2022/07/10 01:31:43;;;;;;;5.20;4.70;;;21.00;53.90;;;;;;5029859;27;20447;-88
2022/07/10 01:34:10;;;;;;;6.63;5.63;;;20.90;54.70;;;;;;5094478;27;20467;-88
2022/07/10 01:36:38;;;;;;;7.20;5.10;;;20.80;54.50;;;;;;5018691;27;20478;-88
2022/07/10 01:39:07;;;;;;;5.30;4.87;;;20.90;54.10;;;;;;5017363;27;20546;-88
2022/07/10 01:41:35;;;;;;;6.80;5.27;;;20.70;54.70;;;;;;5000590;28;20465;-89
2022/07/10 01:44:03;;;;;;;5.60;5.10;;;20.50;54.50;;;;;;5007477;28;20430;-86
2022/07/10 01:46:30;;;;;;;5.73;5.20;;;20.60;54.50;;;;;;4991099;28;20435;-88
2022/07/10 01:48:57;;;;;;;6.37;5.67;;;20.80;55.40;;;;;;5019513;27;20457;-88
2022/07/10 01:51:24;;;;;;;5.73;5.13;;;20.70;55.50;;;;;;5031575;27;20455;-87
2022/07/10 01:53:51;;;;;;;6.13;5.57;;;20.80;55.00;;;;;;5030718;28;20485;-88
2022/07/10 01:56:20;;;;;;;5.40;4.80;;;20.90;54.60;;;;;;5038778;27;21137;-87
2022/07/10 01:58:47;;;;;;;5.40;4.90;;;20.80;54.70;;;;;;5016128;27;20572;-88
2022/07/10 02:01:14;;;;;;;5.23;4.83;;;20.80;54.30;;;;;;5034223;27;20506;-88
2022/07/10 02:06:26;;;;;;;5.30;4.80;;;20.70;54.40;;;;;;5033470;27;20446;-88
2022/07/10 02:08:53;;;;;;;5.43;4.93;;;20.50;54.60;;;;;;5033328;27;20471;-88
2022/07/10 02:11:21;;;;;;;5.80;5.30;;;20.70;54.20;;;;;;5019115;27;21139;-88
2022/07/10 02:13:48;;;;;;;5.90;5.13;;;20.70;54.10;;;;;;5010866;28;20997;-89
2022/07/10 02:16:15;;;;;;;5.60;5.10;;;20.80;53.50;;;;;;5036807;27;20450;-88
2022/07/10 02:18:42;;;;;;;5.60;5.10;;;20.90;53.10;;;;;;5039028;27;20478;-88
2022/07/10 02:21:09;;;;;;;5.40;4.90;;;20.80;53.50;;;;;;5015103;28;20454;-88
2022/07/10 02:23:39;;;;;;;6.70;5.60;;;20.80;53.20;;;;;;5029005;28;20450;-88
2022/07/10 02:26:06;;;;;;;6.20;5.40;;;20.90;53.30;;;;;;5033163;27;20525;-88
2022/07/10 02:28:34;;;;;;;5.80;4.90;;;20.90;53.10;;;;;;5024936;28;20469;-87
2022/07/10 02:31:01;;;;;;;5.20;4.80;;;20.90;53.10;;;;;;5005575;28;20949;-88
2022/07/10 02:33:28;;;;;;;5.30;4.80;;;20.90;53.50;;;;;;5029176;28;20481;-88
2022/07/10 02:35:55;;;;;;;6.20;5.27;;;20.60;54.20;;;;;;5045403;27;20890;-88
2022/07/10 02:38:22;;;;;;;5.80;5.30;;;20.30;54.50;;;;;;5013709;27;20488;-87
2022/07/10 02:40:49;;;;;;;8.30;5.00;;;20.20;54.70;;;;;;5023769;28;20546;-88
2022/07/10 02:43:16;;;;;;;6.30;4.80;;;20.40;54.00;;;;;;5016069;27;20450;-88
2022/07/10 02:45:45;;;;;;;6.33;5.70;;;20.40;53.60;;;;;;5032066;27;20450;-88
2022/07/10 02:48:12;;;;;;;5.73;5.23;;;20.30;55.00;;;;;;5017177;27;20516;-87
2022/07/10 02:50:39;;;;;;;7.60;5.83;;;20.30;55.30;;;;;;5025846;28;20831;-88
2022/07/10 02:53:05;;;;;;;8.10;5.73;;;20.00;56.10;;;;;;5029591;27;20454;-88
2022/07/10 02:55:33;;;;;;;6.63;5.87;;;20.20;55.80;;;;;;5029291;27;20820;-87
2022/07/10 02:58:00;;;;;;;6.70;6.13;;;20.30;55.60;;;;;;5025583;27;21084;-89
2022/07/10 03:00:28;;;;;;;5.50;5.00;;;20.30;55.90;;;;;;5033262;27;20446;-88
2022/07/10 03:02:56;;;;;;;5.60;5.10;;;20.40;54.90;;;;;;5011313;28;20442;-88
2022/07/10 03:05:24;;;;;;;5.07;4.53;;;20.40;54.40;;;;;;5025882;27;20450;-88
2022/07/10 03:07:51;;;;;;;4.80;4.33;;;20.40;53.70;;;;;;5029225;27;20469;-88
2022/07/10 03:10:18;;;;;;;5.03;4.57;;;20.50;54.10;;;;;;5093110;27;20813;-88
2022/07/10 03:12:45;;;;;;;5.80;4.90;;;20.50;53.80;;;;;;5031210;27;20837;-88
2022/07/10 03:15:12;;;;;;;8.40;4.20;;;20.40;53.90;;;;;;5010650;27;20493;-88
2022/07/10 03:17:39;;;;;;;4.80;3.97;;;20.50;53.60;;;;;;5007627;28;20465;-88
2022/07/10 03:20:11;;;;;;;6.80;5.33;;;20.50;53.50;;;;;;5018987;28;20455;-88
2022/07/10 03:22:38;;;;;;;4.57;4.10;;;20.50;53.40;;;;;;5030154;27;20442;-88
2022/07/10 03:25:06;;;;;;;7.80;5.37;;;20.50;53.10;;;;;;5025366;27;20470;-87
2022/07/10 03:27:33;;;;;;;5.40;4.23;;;20.40;52.90;;;;;;5022477;27;20478;-86
2022/07/10 03:30:00;;;;;;;5.80;4.10;;;20.40;53.30;;;;;;5037092;27;20454;-88
2022/07/10 03:32:27;;;;;;;3.70;3.40;;;20.40;53.30;;;;;;5017322;27;20438;-88
2022/07/10 03:34:54;;;;;;;5.50;4.60;;;20.30;53.40;;;;;;5034730;27;20484;-88
2022/07/10 03:37:23;;;;;;;4.60;3.70;;;20.30;53.20;;;;;;5034843;27;20472;-88
2022/07/10 03:39:49;;;;;;;4.10;3.80;;;20.20;53.10;;;;;;5030611;28;20537;-89
2022/07/10 03:42:16;;;;;;;3.77;3.47;;;20.30;52.80;;;;;;5025543;28;20455;-88
2022/07/10 03:44:44;;;;;;;5.53;3.50;;;20.30;52.50;;;;;;5033458;27;20443;-87
2022/07/10 03:47:11;;;;;;;4.20;3.80;;;20.20;52.40;;;;;;5023824;28;21342;-89
2022/07/10 03:49:39;;;;;;;4.03;3.70;;;20.10;52.00;;;;;;5022659;28;20457;-87
2022/07/10 03:52:07;;;;;;;5.90;4.70;;;20.00;52.40;;;;;;5005011;28;20442;-88
2022/07/10 03:54:35;;;;;;;4.13;3.80;;;20.00;52.70;;;;;;5010561;28;20467;-86
2022/07/10 03:59:47;;;;;;;5.57;5.07;;;20.00;52.90;;;;;;5030617;27;20442;-88
2022/07/10 04:02:14;;;;;;;4.93;4.43;;;20.00;53.40;;;;;;5026971;27;20960;-87
2022/07/10 04:04:41;;;;;;;5.30;4.80;;;20.00;53.50;;;;;;5004231;28;20465;-87
2022/07/10 04:07:08;;;;;;;5.13;4.53;;;20.00;53.70;;;;;;5007640;28;20478;-87
2022/07/10 04:09:36;;;;;;;4.30;3.90;;;20.10;53.70;;;;;;5006846;28;21284;-87
2022/07/10 04:12:03;;;;;;;5.13;4.50;;;20.10;54.00;;;;;;5018995;28;20461;-87
2022/07/10 04:14:30;;;;;;;5.10;3.87;;;20.10;54.70;;;;;;5022237;28;20841;-87
2022/07/10 04:16:57;;;;;;;3.60;3.30;;;20.20;54.60;;;;;;5023667;27;20464;-87
2022/07/10 04:19:24;;;;;;;5.03;3.70;;;20.30;54.90;;;;;;5019314;28;20458;-87
2022/07/10 04:21:51;;;;;;;3.20;2.90;;;20.40;54.80;;;;;;5003381;28;20488;-88
2022/07/10 04:24:18;;;;;;;3.63;3.30;;;20.40;54.30;;;;;;5021398;28;20438;-87
2022/07/10 04:26:46;;;;;;;10.77;3.60;;;20.40;54.00;;;;;;5018193;28;20449;-87
2022/07/10 04:29:13;;;;;;;3.40;3.10;;;20.40;53.40;;;;;;5016785;28;20477;-87
2022/07/10 04:31:40;;;;;;;3.40;3.10;;;20.40;53.80;;;;;;5021699;28;20458;-88
2022/07/10 04:34:07;;;;;;;3.10;2.90;;;20.40;53.50;;;;;;5020988;28;20943;-87
2022/07/10 04:36:34;;;;;;;2.80;2.60;;;20.30;53.00;;;;;;5019476;28;21059;-88
2022/07/10 04:39:01;;;;;;;3.27;2.97;;;20.40;53.00;;;;;;5024094;28;20477;-87
2022/07/10 04:41:28;;;;;;;4.33;2.70;;;20.50;53.10;;;;;;5016667;28;20469;-87
2022/07/10 04:43:56;;;;;;;3.43;2.40;;;20.60;53.30;;;;;;5019400;28;20452;-86
2022/07/10 04:46:23;;;;;;;6.67;2.53;;;20.70;53.00;;;;;;5024887;28;20537;-87
2022/07/10 04:48:51;;;;;;;2.97;2.70;;;20.80;52.70;;;;;;5004583;28;20481;-87
2022/07/10 04:51:18;;;;;;;3.77;2.40;;;20.80;52.20;;;;;;5030610;28;20451;-88
2022/07/10 04:53:45;;;;;;;2.63;2.43;;;20.90;52.30;;;;;;5020242;28;20455;-87
2022/07/10 04:56:12;;;;;;;3.60;2.27;;;21.00;52.40;;;;;;5023711;28;20479;-88
2022/07/10 04:58:39;;;;;;;6.13;2.33;;;21.00;51.90;;;;;;5028412;27;20838;-88
2022/07/10 05:01:07;;;;;;;3.90;2.40;;;21.00;51.10;;;;;;5013643;28;20477;-88
2022/07/10 05:03:34;;;;;;;3.07;1.90;;;20.90;51.10;;;;;;4990881;28;20458;-89
2022/07/10 05:06:01;;;;;;;2.80;2.30;;;20.90;50.60;;;;;;5030394;27;20442;-87
2022/07/10 05:08:28;;;;;;;2.37;2.17;;;20.80;50.30;;;;;;5023135;27;20478;-88
2022/07/10 05:10:55;;;;;;;3.10;2.20;;;20.70;50.90;;;;;;5021698;27;20461;-87
2022/07/10 05:13:22;;;;;;;6.73;2.50;;;20.70;51.20;;;;;;5022502;27;20553;-87
2022/07/10 05:15:49;;;;;;;2.33;1.73;;;20.70;51.10;;;;;;5011726;28;20558;-87
2022/07/10 05:18:18;;;;;;;2.60;1.60;;;20.70;50.70;;;;;;5025684;27;20561;-88
2022/07/10 05:20:47;;;;;;;1.60;1.43;;;20.70;48.10;;;;;;5020491;28;20461;-87
2022/07/10 05:23:14;;;;;;;3.93;1.80;;;20.40;46.90;;;;;;5024970;27;21042;-87
2022/07/10 05:25:41;;;;;;;1.90;1.70;;;20.30;46.80;;;;;;5020513;28;20450;-88
2022/07/10 05:28:09;;;;;;;2.60;1.47;;;20.20;47.80;;;;;;5090112;27;20473;-88
2022/07/10 05:30:35;;;;;;;3.53;1.30;;;20.20;47.40;;;;;;5023450;28;20458;-89
2022/07/10 05:33:02;;;;;;;1.40;1.30;;;20.10;47.70;;;;;;5024673;27;20451;-87
2022/07/10 05:35:31;;;;;;;7.00;1.47;;;20.20;47.10;;;;;;5005725;28;20915;-87
2022/07/10 05:37:58;;;;;;;5.00;1.77;;;20.30;48.20;;;;;;4994508;27;21127;-88
2022/07/10 05:40:25;;;;;;;2.53;1.80;;;20.40;47.70;;;;;;5023071;28;20524;-88
2022/07/10 05:42:52;;;;;;;7.93;1.73;;;20.40;47.70;;;;;;5022004;28;20459;-87
2022/07/10 05:45:19;;;;;;;3.50;1.73;;;20.40;46.80;;;;;;5022742;28;20465;-87
2022/07/10 05:47:46;;;;;;;1.57;1.40;;;20.00;46.20;;;;;;5020416;28;20477;-87
2022/07/10 05:50:13;;;;;;;5.40;1.47;;;20.00;46.40;;;;;;5004897;28;20455;-87
2022/07/10 05:52:42;;;;;;;3.00;1.57;;;19.70;45.60;;;;;;5022067;27;20461;-88
2022/07/10 05:55:09;;;;;;;1.13;1.03;;;19.60;46.50;;;;;;4993015;28;20466;-88
2022/07/10 05:57:37;;;;;;;3.83;1.53;;;19.70;47.10;;;;;;5003667;28;20475;-88
2022/07/10 06:00:05;;;;;;;2.57;1.20;;;19.70;45.80;;;;;;5025309;28;20484;-88
2022/07/10 06:02:38;;;;;;;1.43;1.00;;;19.70;45.80;;;;;;5009556;28;21353;-87
2022/07/10 06:05:06;;;;;;;1.73;1.17;;;19.70;45.20;;;;;;5026754;27;20446;-88
2022/07/10 06:07:34;;;;;;;1.27;1.00;;;19.80;44.60;;;;;;4992217;28;20832;-85
2022/07/10 06:10:02;;;;;;;4.33;1.17;;;20.10;45.50;;;;;;4988805;28;20439;-87
2022/07/10 06:12:29;;;;;;;1.40;1.00;;;20.30;45.20;;;;;;4990485;28;20446;-88
2022/07/10 06:14:56;;;;;;;2.10;1.47;;;20.50;44.30;;;;;;5023062;27;20965;-88
2022/07/10 06:17:23;;;;;;;2.23;1.27;;;20.60;44.00;;;;;;5005862;28;20486;-88
2022/07/10 06:19:50;;;;;;;1.30;1.07;;;20.50;43.40;;;;;;5029838;27;20450;-88
2022/07/10 06:22:32;;;;;;;2.97;0.97;;;20.10;42.90;;;;;;5028149;27;20446;-87
2022/07/10 06:24:59;;;;;;;3.30;1.17;;;20.00;43.00;;;;;;5025565;28;20454;-88
2022/07/10 06:27:28;;;;;;;1.20;0.80;;;19.90;43.20;;;;;;5008349;28;20478;-89
2022/07/10 06:29:56;;;;;;;2.17;0.97;;;19.90;42.80;;;;;;5023712;28;20461;-88
2022/07/10 06:32:24;;;;;;;6.60;1.10;;;20.00;42.20;;;;;;5005941;28;20989;-88
2022/07/10 06:34:51;;;;;;;1.70;0.80;;;20.00;42.30;;;;;;5024187;27;20501;-87
2022/07/10 06:37:19;;;;;;;1.93;0.93;;;20.20;41.60;;;;;;5019947;28;20565;-88
2022/07/10 06:39:47;;;;;;;1.43;0.90;;;20.40;40.70;;;;;;5021450;28;20450;-87
2022/07/10 06:42:14;;;;;;;1.40;0.90;;;20.40;40.60;;;;;;5023222;27;20537;-87
2022/07/10 06:44:44;;;;;;;1.53;1.13;;;20.60;40.90;;;;;;5015123;27;21282;-88
2022/07/10 06:49:58;;;;;;;4.03;1.00;;;21.00;40.30;;;;;;5013952;27;20453;-87
2022/07/10 06:52:25;;;;;;;2.70;1.00;;;21.20;39.40;;;;;;5006744;27;20529;-87
2022/07/10 06:54:53;;;;;;;1.83;0.90;;;21.20;38.90;;;;;;5024060;28;20466;-88
2022/07/10 06:57:21;;;;;;;5.20;0.97;;;20.90;39.20;;;;;;4993584;28;20485;-87
2022/07/10 06:59:51;;;;;;;1.73;0.87;;;20.80;39.60;;;;;;5023106;27;20457;-87
2022/07/10 07:02:18;;;;;;;1.63;0.97;;;20.80;40.40;;;;;;5019093;28;20461;-87
2022/07/10 07:04:45;;;;;;;5.23;1.00;;;20.80;39.90;;;;;;5023020;28;21122;-88
2022/07/10 07:07:12;;;;;;;1.00;0.90;;;20.90;40.20;;;;;;5021922;27;20996;-90
2022/07/10 07:09:40;;;;;;;1.10;1.00;;;20.80;40.00;;;;;;5005492;28;20450;-87
2022/07/10 07:12:08;;;;;;;0.90;0.80;;;20.50;39.90;;;;;;5028899;27;20451;-88
2022/07/10 07:14:35;;;;;;;2.70;1.20;;;20.50;40.40;;;;;;5023475;27;20597;-88
2022/07/10 07:17:06;;;;;;;4.50;1.07;;;20.40;41.10;;;;;;4994698;27;20470;-89
2022/07/10 07:23:09;;;;;;;3.33;1.10;;;20.50;40.40;;;;;;5023407;28;21122;-91
2022/07/10 07:25:07;;;;;;;1.50;0.90;;;20.90;39.50;;;;;;5025859;27;20443;-88
2022/07/10 07:27:34;;;;;;;2.10;0.80;;;21.00;40.00;;;;;;5020062;28;20500;-87
2022/07/10 07:30:06;;;;;;;4.80;1.43;;;20.90;39.70;;;;;;5002889;28;20455;-87
2022/07/10 07:32:35;;;;;;;1.10;1.00;;;21.00;39.70;;;;;;5019439;28;20533;-85
2022/07/10 07:35:02;;;;;;;4.40;1.03;;;21.00;39.30;;;;;;5001557;28;20475;-88
2022/07/10 07:37:37;;;;;;;1.10;1.00;;;21.00;39.60;;;;;;5019200;28;20478;-88
2022/07/10 07:40:05;;;;;;;3.83;0.93;;;21.10;39.20;;;;;;5019117;28;20481;-89
2022/07/10 07:42:32;;;;;;;2.03;0.90;;;21.40;38.40;;;;;;5020432;28;20443;-87
2022/07/10 07:44:59;;;;;;;1.70;0.80;;;21.30;38.70;;;;;;5019861;27;21437;-86
2022/07/10 07:47:27;;;;;;;1.20;0.80;;;20.90;39.30;;;;;;5007939;28;20474;-86
2022/07/10 07:49:55;;;;;;;1.10;0.90;;;20.70;39.90;;;;;;5018559;27;20457;-86
2022/07/10 07:52:22;;;;;;;2.20;0.90;;;20.70;39.40;;;;;;5015958;28;20523;-85
2022/07/10 07:54:50;;;;;;;2.07;0.73;;;20.80;39.00;;;;;;5019768;28;20531;-86
2022/07/10 07:57:17;;;;;;;0.80;0.80;;;20.90;39.00;;;;;;5015525;28;20462;-85
2022/07/10 07:59:44;;;;;;;1.90;0.90;;;21.10;38.90;;;;;;5016469;28;21135;-85
2022/07/10 08:02:12;;;;;;;5.60;1.17;;;21.30;40.20;;;;;;5024394;27;20462;-86
2022/07/10 08:04:39;;;;;;;1.13;0.80;;;21.50;38.60;;;;;;5020905;27;20461;-87
2022/07/10 08:07:07;;;;;;;3.23;1.00;;;21.60;37.10;;;;;;5012675;27;20490;-88
2022/07/10 08:09:34;;;;;;;1.30;0.90;;;22.00;38.40;;;;;;5013544;28;20442;-86
2022/07/10 08:12:01;;;;;;;1.30;1.00;;;22.10;37.00;;;;;;4999575;28;20451;-84
2022/07/10 08:14:29;;;;;;;3.47;0.97;;;22.30;36.50;;;;;;5016980;28;20953;-86
2022/07/10 08:16:56;;;;;;;1.93;1.17;;;22.30;36.60;;;;;;5015638;28;20702;-85
2022/07/10 08:19:22;;;;;;;2.00;1.00;;;22.30;37.60;;;;;;5014211;28;20458;-87
2022/07/10 08:21:49;;;;;;;1.67;0.80;;;22.20;37.40;;;;;;4987613;28;20481;-86
2022/07/10 08:24:19;;;;;;;1.30;0.73;;;22.10;36.50;;;;;;5015936;28;20454;-88
2022/07/10 08:26:46;;;;;;;2.70;1.13;;;22.00;36.70;;;;;;5017092;28;20466;-88
2022/07/10 08:29:13;;;;;;;1.00;0.80;;;22.10;36.70;;;;;;5019376;28;20454;-88
2022/07/10 08:31:40;;;;;;;1.33;1.10;;;22.20;36.10;;;;;;5020212;28;20466;-90
2022/07/10 08:34:07;;;;;;;3.73;1.00;;;22.50;36.80;;;;;;5022923;28;20454;-87
2022/07/10 08:36:34;;;;;;;2.00;0.90;;;22.40;35.20;;;;;;5018187;28;20467;-91
2022/07/10 08:39:01;;;;;;;2.90;1.10;;;22.40;36.10;;;;;;5007317;28;20495;-89
2022/07/10 08:41:33;;;;;;;4.33;0.97;;;22.30;36.10;;;;;;5007338;28;20445;-88
2022/07/10 08:44:00;;;;;;;3.27;1.03;;;22.30;35.90;;;;;;5015541;28;20456;-88
2022/07/10 08:46:28;;;;;;;3.03;0.90;;;22.30;36.20;;;;;;5022897;27;20462;-89
2022/07/10 08:49:00;;;;;;;2.17;0.93;;;22.40;35.80;;;;;;5016512;28;20466;-88
2022/07/10 08:51:37;;;;;;;3.63;0.80;;;22.40;35.60;;;;;;5000883;28;20442;-87
2022/07/10 08:54:06;;;;;;;3.03;1.53;;;22.40;35.70;;;;;;4998366;28;20482;-87
2022/07/10 08:56:35;;;;;;;1.10;0.90;;;22.50;35.40;;;;;;4998361;28;20481;-86
2022/07/10 08:59:04;;;;;;;2.00;1.00;;;22.40;36.10;;;;;;5014428;28;20482;-89
2022/07/10 09:01:32;;;;;;;4.73;1.30;;;22.50;35.10;;;;;;5014826;28;20465;-88
2022/07/10 09:03:59;;;;;;;3.00;1.20;;;22.30;35.40;;;;;;5014438;28;20951;-88
2022/07/10 09:06:28;;;;;;;3.43;1.17;;;22.40;35.80;;;;;;5020862;27;20462;-87
2022/07/10 09:09:03;;;;;;;1.87;1.00;;;22.60;36.10;;;;;;4987922;28;20477;-88
2022/07/10 09:11:31;;;;;;;1.37;0.97;;;22.70;36.00;;;;;;5014030;28;20450;-87
2022/07/10 09:14:03;;;;;;;2.20;0.93;;;22.70;36.30;;;;;;5013810;28;20466;-86
2022/07/10 09:16:32;;;;;;;1.20;0.93;;;22.70;35.70;;;;;;5031669;27;20466;-87
2022/07/10 09:19:16;;;;;;;4.53;1.10;;;22.70;35.70;;;;;;5017060;28;20484;-87
2022/07/10 09:21:44;;;;;;;3.10;0.80;;;22.80;34.80;;;;;;5017579;28;21191;-87
2022/07/10 09:24:11;;;;;;;1.43;1.07;;;22.90;34.10;;;;;;5017984;28;21086;-89
2022/07/10 09:26:39;;;;;;;2.90;0.90;;;22.90;34.20;;;;;;5016214;28;20847;-87
2022/07/10 09:29:08;;;;;;;6.70;1.20;;;23.10;34.80;;;;;;5014561;28;21399;-89
2022/07/10 09:31:52;;;;;;;1.50;1.03;;;23.10;33.90;;;;;;4997325;28;20446;-90
2022/07/10 09:34:35;;;;;;;1.20;0.80;;;22.70;34.60;;;;;;5014297;28;20450;-85
2022/07/10 09:37:21;;;;;;;1.00;0.80;;;22.50;34.50;;;;;;5001710;28;20467;-88
2022/07/10 09:39:56;;;;;;;1.60;1.10;;;22.40;35.80;;;;;;5020968;28;20553;-88
2022/07/10 09:42:31;;;;;;;1.73;1.23;;;22.40;34.80;;;;;;5018139;28;20477;-88
2022/07/10 09:45:21;;;;;;;1.43;0.93;;;22.60;35.80;;;;;;5020252;27;20456;-88
2022/07/10 09:47:57;;;;;;;1.33;0.93;;;22.70;34.20;;;;;;4992820;28;20470;-90
2022/07/10 09:50:26;;;;;;;1.33;0.80;;;22.30;35.80;;;;;;5002155;28;20826;-88
2022/07/10 09:52:54;;;;;;;1.30;0.90;;;22.30;35.40;;;;;;5018163;27;21153;-88
2022/07/10 09:55:24;;;;;;;4.30;0.93;;;22.50;35.70;;;;;;5019983;28;20462;-86
2022/07/10 09:57:56;;;;;;;2.60;1.00;;;22.50;35.10;;;;;;5003306;28;20470;-88
2022/07/10 10:00:30;;;;;;;2.20;0.90;;;22.90;35.20;;;;;;5036580;27;20541;-88
2022/07/10 10:02:59;;;;;;;1.57;1.20;;;23.00;34.90;;;;;;5001690;28;20464;-87
2022/07/10 10:05:37;;;;;;;1.37;0.93;;;23.20;35.20;;;;;;5017545;27;20463;-88
2022/07/10 10:08:13;;;;;;;1.93;1.03;;;23.30;34.00;;;;;;5019745;27;20478;-88
2022/07/10 10:10:47;;;;;;;1.20;0.97;;;23.50;33.80;;;;;;5002756;28;20454;-87
2022/07/10 10:13:18;;;;;;;2.07;0.90;;;23.60;33.80;;;;;;5018199;28;20454;-88
2022/07/10 10:15:48;;;;;;;2.40;0.90;;;23.50;33.80;;;;;;5021318;27;20561;-89
2022/07/10 10:18:17;;;;;;;3.00;1.50;;;23.30;34.30;;;;;;5021903;27;20531;-88
2022/07/10 10:20:45;;;;;;;1.57;1.20;;;23.10;34.20;;;;;;5005661;28;20471;-87
2022/07/10 10:23:15;;;;;;;2.90;1.00;;;22.90;34.60;;;;;;5018103;28;20532;-85
2022/07/10 10:25:41;;;;;;;1.53;1.10;;;23.20;34.80;;;;;;5003073;28;20825;-86
2022/07/10 10:28:11;;;;;;;1.40;0.97;;;23.40;33.50;;;;;;5019269;28;20463;-86
2022/07/10 10:30:40;;;;;;;1.80;1.10;;;23.60;33.30;;;;;;5018828;28;20457;-90
2022/07/10 10:33:42;;;;;;;1.30;0.80;;;23.60;33.60;;;;;;5020071;27;20450;-88
2022/07/10 10:36:12;;;;;;;3.33;1.37;;;23.50;33.50;;;;;;5020459;28;20602;-87
2022/07/10 10:39:01;;;;;;;1.93;0.90;;;23.50;34.20;;;;;;5021250;27;20474;-88
2022/07/10 10:41:31;;;;;;;1.40;1.20;;;23.20;34.00;;;;;;5022130;27;20455;-86
2022/07/10 10:44:35;;;;;;;2.30;1.03;;;23.10;34.00;;;;;;4993260;28;20455;-86
2022/07/10 10:47:07;;;;;;;1.33;1.23;;;22.90;35.20;;;;;;4994118;28;20480;-86
2022/07/10 10:50:01;;;;;;;2.50;1.10;;;23.00;35.10;;;;;;5018560;28;20504;-88
2022/07/10 10:52:30;;;;;;;2.93;1.03;;;23.00;35.20;;;;;;5020922;28;20458;-86
2022/07/10 10:55:14;;;;;;;1.17;0.83;;;23.10;34.30;;;;;;5018742;28;20454;-87
2022/07/10 10:57:47;;;;;;;1.40;0.80;;;23.30;34.00;;;;;;5023357;27;20470;-88
2022/07/10 11:00:40;;;;;;;1.13;0.77;;;23.20;34.00;;;;;;5008310;28;20446;-86
2022/07/10 11:03:21;;;;;;;0.80;0.73;;;23.10;35.20;;;;;;5019033;27;20785;-87
2022/07/10 11:05:50;;;;;;;2.17;0.93;;;23.20;34.80;;;;;;5020553;28;20573;-87
2022/07/10 11:08:40;;;;;;;3.47;1.30;;;23.00;35.00;;;;;;5022359;27;20566;-86
2022/07/10 11:11:39;;;;;;;1.50;1.13;;;22.90;35.20;;;;;;5018482;28;20468;-88
2022/07/10 11:14:08;;;;;;;1.60;1.10;;;22.90;35.40;;;;;;5020279;27;20451;-86
2022/07/10 11:16:35;;;;;;;2.43;1.03;;;23.40;35.20;;;;;;5018653;28;20486;-87
2022/07/10 11:19:03;;;;;;;2.40;1.07;;;23.90;34.40;;;;;;5017946;27;20557;-87
2022/07/10 11:21:47;;;;;;;2.43;0.90;;;24.20;34.00;;;;;;5001085;28;20506;-87
2022/07/10 11:24:33;;;;;;;0.73;0.70;;;24.20;33.00;;;;;;5021404;27;21488;-87
2022/07/10 11:27:09;;;;;;;1.50;0.83;;;23.90;33.40;;;;;;5020341;28;20446;-87
2022/07/10 11:29:39;;;;;;;5.33;1.00;;;23.70;34.40;;;;;;5019663;28;20934;-88
2022/07/10 11:32:07;;;;;;;2.50;1.20;;;23.70;34.70;;;;;;5019186;28;20457;-87
2022/07/10 11:34:38;;;;;;;1.87;0.93;;;23.60;35.10;;;;;;5000317;28;20499;-86
2022/07/10 11:37:14;;;;;;;1.80;0.93;;;23.50;35.20;;;;;;5017980;27;20556;-87
2022/07/10 11:39:42;;;;;;;4.13;1.10;;;23.60;34.40;;;;;;5002408;28;20801;-87
2022/07/10 11:42:09;;;;;;;2.27;1.00;;;23.80;35.20;;;;;;5023599;27;20845;-86
2022/07/10 11:44:36;;;;;;;1.70;1.10;;;24.10;35.20;;;;;;5029339;27;20443;-87
2022/07/10 11:47:04;;;;;;;1.20;0.97;;;24.30;33.40;;;;;;5018464;28;20474;-87
2022/07/10 11:49:31;;;;;;;1.60;1.27;;;24.50;33.10;;;;;;5019952;28;21137;-86
2022/07/10 11:52:03;;;;;;;2.00;0.90;;;24.80;32.50;;;;;;5019276;28;20447;-87
2022/07/10 11:54:30;;;;;;;1.00;0.90;;;25.00;32.30;;;;;;5021143;28;20459;-87
2022/07/10 11:57:06;;;;;;;1.97;0.90;;;25.00;31.40;;;;;;5020081;28;20478;-87
2022/07/10 11:59:33;;;;;;;1.47;1.13;;;24.50;32.50;;;;;;5017770;28;20446;-85
2022/07/10 12:02:00;;;;;;;2.43;1.10;;;24.40;34.20;;;;;;5019764;28;20928;-87
2022/07/10 12:04:31;;;;;;;3.97;1.40;;;24.40;34.00;;;;;;5022331;27;20553;-87
2022/07/10 12:06:58;;;;;;;1.63;0.80;;;24.10;34.40;;;;;;5008083;27;21272;-86
2022/07/10 12:09:25;;;;;;;2.00;1.10;;;24.10;34.10;;;;;;5020098;27;20844;-87
2022/07/10 12:12:04;;;;;;;1.70;0.77;;;24.10;34.70;;;;;;5018637;28;20454;-88
2022/07/10 12:14:32;;;;;;;3.03;0.90;;;24.10;34.70;;;;;;5001420;28;20454;-89
2022/07/10 12:16:59;;;;;;;2.10;1.00;;;24.10;34.00;;;;;;5018840;28;20977;-87
2022/07/10 12:19:30;;;;;;;2.30;0.90;;;23.80;34.50;;;;;;4997743;28;20470;-86
2022/07/10 12:21:58;;;;;;;2.67;1.10;;;23.90;34.60;;;;;;5017738;28;21136;-86
2022/07/10 12:24:26;;;;;;;1.80;1.00;;;24.50;34.10;;;;;;5019180;28;21442;-86
2022/07/10 12:26:55;;;;;;;1.47;1.00;;;24.60;34.40;;;;;;5026776;27;20518;-87
2022/07/10 12:29:25;;;;;;;1.50;1.23;;;25.00;33.30;;;;;;5001003;28;20454;-86
2022/07/10 12:31:55;;;;;;;2.17;1.40;;;25.00;32.20;;;;;;5018949;28;20446;-86
2022/07/10 12:34:34;;;;;;;1.27;0.90;;;24.90;32.90;;;;;;5017232;28;20474;-86
2022/07/10 12:37:08;;;;;;;2.80;1.40;;;24.90;34.00;;;;;;5017671;28;20562;-88
2022/07/10 12:39:38;;;;;;;2.17;1.00;;;25.00;33.00;;;;;;5017290;28;20453;-87
2022/07/10 12:42:07;;;;;;;4.47;1.10;;;25.30;32.90;;;;;;5021689;28;20459;-87
2022/07/10 12:44:41;;;;;;;2.60;1.10;;;25.20;32.40;;;;;;5021428;28;20880;-86
2022/07/10 12:47:11;;;;;;;1.37;0.97;;;24.80;33.10;;;;;;5020469;28;20445;-86
2022/07/10 12:49:55;;;;;;;1.53;0.80;;;24.70;33.10;;;;;;5021855;27;20451;-89
2022/07/10 12:52:27;;;;;;;3.30;0.93;;;24.90;32.90;;;;;;5022256;28;20460;-87
2022/07/10 12:55:09;;;;;;;3.27;1.37;;;25.00;32.30;;;;;;5005903;28;20557;-87
2022/07/10 12:57:47;;;;;;;3.03;1.10;;;24.90;33.40;;;;;;5006191;28;21410;-87
2022/07/10 13:00:18;;;;;;;2.30;1.10;;;25.00;33.40;;;;;;5023213;28;20454;-88
2022/07/10 13:02:49;;;;;;;1.57;0.90;;;25.20;33.80;;;;;;5018276;28;20438;-87
2022/07/10 13:05:26;;;;;;;1.90;1.10;;;25.20;33.40;;;;;;5017163;28;20462;-87
2022/07/10 13:07:53;;;;;;;2.03;1.10;;;25.30;32.80;;;;;;5013968;28;20474;-86
2022/07/10 13:10:20;;;;;;;1.73;0.97;;;25.60;32.90;;;;;;5016108;28;20462;-89